createdAt,value
2018-09-30T00:02:28.224Z,4.27
2018-09-30T00:04:57.066Z,4.00
2018-09-30T00:07:26.332Z,3.53
2018-09-30T00:09:55.197Z,4.23
2018-09-30T00:12:24.107Z,3.77
2018-09-30T00:14:52.986Z,4.23
2018-09-30T00:17:21.897Z,4.23
2018-09-30T00:19:50.791Z,4.00
2018-09-30T00:22:19.788Z,4.10
2018-09-30T00:24:53.845Z,4.23
2018-09-30T00:27:23.144Z,3.87
2018-09-30T00:29:52.110Z,3.90
2018-09-30T00:32:20.958Z,3.80
2018-09-30T00:34:49.930Z,3.67
2018-09-30T00:37:18.798Z,3.20
2018-09-30T00:39:48.412Z,3.60
2018-09-30T00:42:17.288Z,3.30
2018-09-30T00:44:46.309Z,3.37
2018-09-30T00:47:15.164Z,3.67
2018-09-30T00:49:44.188Z,3.37
2018-09-30T00:52:13.073Z,3.90
2018-09-30T00:54:42.099Z,3.70
2018-09-30T00:57:10.947Z,3.83
2018-09-30T00:59:39.956Z,3.80
2018-09-30T01:02:08.885Z,3.17
2018-09-30T01:04:37.957Z,3.50
2018-09-30T01:07:07.121Z,3.40
2018-09-30T01:09:36.185Z,3.43
2018-09-30T01:12:05.090Z,3.57
2018-09-30T01:14:34.241Z,3.40
2018-09-30T01:17:03.156Z,3.10
2018-09-30T01:19:32.198Z,3.30
2018-09-30T01:22:01.498Z,3.03
2018-09-30T01:24:30.541Z,3.33
2018-09-30T01:26:59.366Z,3.17
2018-09-30T01:29:28.406Z,3.23
2018-09-30T01:31:57.223Z,3.17
2018-09-30T01:34:26.321Z,3.47
2018-09-30T01:36:55.141Z,3.17
2018-09-30T01:39:24.218Z,3.03
2018-09-30T01:41:53.059Z,3.00
2018-09-30T01:44:22.268Z,2.87
2018-09-30T01:46:51.130Z,3.23
2018-09-30T01:49:24.468Z,3.20
2018-09-30T01:52:04.555Z,3.00
2018-09-30T01:54:33.360Z,3.20
2018-09-30T01:57:02.447Z,3.30
2018-09-30T01:59:31.298Z,3.30
2018-09-30T02:02:00.353Z,2.87
2018-09-30T02:04:29.236Z,3.00
2018-09-30T02:06:58.269Z,3.10
2018-09-30T02:09:27.334Z,2.73
2018-09-30T02:11:56.179Z,3.40
2018-09-30T02:14:25.252Z,2.60
2018-09-30T02:20:25.373Z,3.10
2018-09-30T02:22:54.397Z,3.00
2018-09-30T02:25:23.248Z,2.77
2018-09-30T02:27:52.247Z,3.20
2018-09-30T02:30:21.084Z,3.00
2018-09-30T02:32:50.146Z,3.40
2018-09-30T02:35:19.002Z,3.07
2018-09-30T02:37:48.111Z,2.90
2018-09-30T02:40:16.977Z,2.57
2018-09-30T02:42:46.045Z,2.40
2018-09-30T02:45:14.889Z,2.63
2018-09-30T02:47:43.869Z,3.10
2018-09-30T02:50:12.754Z,2.87
2018-09-30T02:52:41.814Z,2.87
2018-09-30T02:55:10.643Z,2.33
2018-09-30T02:57:40.698Z,2.30
2018-09-30T03:00:09.768Z,2.23
2018-09-30T03:02:39.820Z,2.20
2018-09-30T03:05:08.758Z,2.10
2018-09-30T03:07:42.917Z,1.83
2018-09-30T03:10:11.817Z,1.70
2018-09-30T03:12:40.914Z,1.97
2018-09-30T03:15:09.847Z,1.70
2018-09-30T03:17:39.093Z,1.57
2018-09-30T03:20:07.980Z,1.70
2018-09-30T03:22:37.040Z,1.90
2018-09-30T03:25:05.940Z,1.80
2018-09-30T03:27:34.928Z,1.83
2018-09-30T03:30:03.850Z,2.30
2018-09-30T03:32:32.790Z,2.03
2018-09-30T03:35:01.673Z,2.00
2018-09-30T03:37:30.747Z,1.97
2018-09-30T03:39:59.555Z,2.10
2018-09-30T03:42:28.586Z,1.90
2018-09-30T03:44:57.478Z,2.40
2018-09-30T03:47:26.457Z,2.30
2018-09-30T03:49:55.255Z,2.20
2018-09-30T03:52:24.264Z,2.50
2018-09-30T03:54:53.096Z,1.90
2018-09-30T03:57:22.204Z,2.00
2018-09-30T03:59:51.046Z,2.30
2018-09-30T04:02:21.016Z,1.93
2018-09-30T04:04:49.892Z,1.97
2018-09-30T04:07:19.007Z,2.47
2018-09-30T04:09:47.954Z,1.90
2018-09-30T04:12:16.877Z,2.07
2018-09-30T04:14:45.758Z,2.40
2018-09-30T04:17:14.781Z,2.20
2018-09-30T04:19:43.643Z,2.37
2018-09-30T04:22:12.673Z,2.30
2018-09-30T04:24:41.500Z,2.10
2018-09-30T04:27:10.353Z,2.13
2018-09-30T04:29:39.225Z,1.60
2018-09-30T04:32:08.226Z,2.50
2018-09-30T04:34:37.095Z,2.20
2018-09-30T04:37:06.361Z,2.20
2018-09-30T04:39:35.256Z,2.13
2018-09-30T04:42:04.287Z,1.90
2018-09-30T04:44:33.551Z,2.10
2018-09-30T04:47:03.088Z,2.47
2018-09-30T04:49:31.966Z,2.27
2018-09-30T04:52:00.960Z,1.80
2018-09-30T04:54:29.797Z,1.97
2018-09-30T04:56:58.737Z,2.10
2018-09-30T04:59:27.569Z,1.90
2018-09-30T05:01:56.495Z,1.80
2018-09-30T05:04:25.388Z,2.40
2018-09-30T05:06:55.444Z,2.10
2018-09-30T05:09:24.759Z,2.70
2018-09-30T05:11:53.726Z,2.30
2018-09-30T05:14:22.594Z,2.20
2018-09-30T05:16:52.874Z,2.20
2018-09-30T05:19:21.724Z,2.20
2018-09-30T05:21:50.726Z,2.00
2018-09-30T05:24:19.594Z,2.00
2018-09-30T05:26:48.712Z,1.83
2018-09-30T05:29:17.574Z,2.37
2018-09-30T05:31:46.691Z,2.23
2018-09-30T05:34:15.521Z,2.60
2018-09-30T05:36:44.552Z,2.13
2018-09-30T05:39:13.384Z,2.60
2018-09-30T05:41:43.479Z,2.30
2018-09-30T05:44:12.342Z,2.50
2018-09-30T05:46:41.321Z,2.20
2018-09-30T05:49:10.402Z,2.03
2018-09-30T05:51:39.421Z,1.90
2018-09-30T05:54:08.306Z,2.50
2018-09-30T05:56:38.575Z,2.13
2018-09-30T05:59:07.454Z,2.20
2018-09-30T06:01:37.368Z,2.20
2018-09-30T06:04:06.342Z,2.00
2018-09-30T06:06:35.199Z,2.53
2018-09-30T06:09:05.162Z,2.23
2018-09-30T06:11:34.159Z,2.30
2018-09-30T06:14:03.143Z,2.27
2018-09-30T06:16:32.030Z,2.43
2018-09-30T06:19:01.016Z,2.37
2018-09-30T06:21:29.998Z,1.93
2018-09-30T06:23:58.877Z,2.20
2018-09-30T06:26:27.831Z,2.03
2018-09-30T06:28:56.691Z,2.37
2018-09-30T06:31:26.145Z,2.73
2018-09-30T06:33:55.039Z,2.30
2018-09-30T06:36:24.037Z,1.90
2018-09-30T06:38:52.962Z,2.10
2018-09-30T06:41:21.961Z,2.43
2018-09-30T06:43:50.775Z,2.30
2018-09-30T06:46:19.778Z,2.43
2018-09-30T06:48:48.596Z,2.50
2018-09-30T06:51:18.240Z,3.00
2018-09-30T06:53:47.089Z,2.57
2018-09-30T06:56:16.064Z,3.77
2018-09-30T06:58:44.960Z,3.70
2018-09-30T07:01:13.871Z,4.53
2018-09-30T07:03:42.729Z,4.30
2018-09-30T07:06:11.772Z,4.20
2018-09-30T07:08:40.921Z,3.30
2018-09-30T07:11:09.875Z,3.30
2018-09-30T07:13:38.711Z,2.90
2018-09-30T07:16:07.743Z,3.50
2018-09-30T07:18:36.620Z,3.23
2018-09-30T07:21:05.583Z,2.40
2018-09-30T07:23:34.434Z,3.40
2018-09-30T07:26:03.497Z,2.40
2018-09-30T07:28:32.324Z,2.80
2018-09-30T07:31:01.281Z,2.00
2018-09-30T07:33:30.181Z,2.23
2018-09-30T07:35:59.179Z,2.20
2018-09-30T07:38:27.987Z,2.00
2018-09-30T07:40:57.021Z,2.13
2018-09-30T07:43:25.908Z,2.30
2018-09-30T07:45:54.873Z,2.37
2018-09-30T07:48:23.737Z,2.43
2018-09-30T07:50:52.659Z,2.57
2018-09-30T07:53:21.550Z,2.30
2018-09-30T07:55:50.541Z,2.40
2018-09-30T07:58:19.390Z,2.30
2018-09-30T08:00:48.388Z,2.37
2018-09-30T08:03:17.381Z,2.23
2018-09-30T08:05:46.261Z,2.10
2018-09-30T08:08:15.351Z,2.27
2018-09-30T08:10:44.353Z,2.00
2018-09-30T08:13:13.175Z,2.30
2018-09-30T08:15:42.168Z,2.50
2018-09-30T08:18:11.091Z,1.97
2018-09-30T08:20:40.069Z,2.00
2018-09-30T08:23:08.936Z,2.20
2018-09-30T08:25:37.811Z,1.97
2018-09-30T08:28:06.841Z,2.10
2018-09-30T08:30:35.815Z,2.00
2018-09-30T08:33:04.697Z,2.00
2018-09-30T08:35:33.640Z,2.17
2018-09-30T08:38:07.595Z,1.90
2018-09-30T08:40:42.784Z,1.80
2018-09-30T08:43:11.712Z,1.80
2018-09-30T08:45:40.757Z,1.70
2018-09-30T08:48:09.641Z,1.73
2018-09-30T08:50:38.627Z,1.57
2018-09-30T08:53:07.624Z,2.23
2018-09-30T08:55:36.558Z,2.20
2018-09-30T08:58:05.434Z,1.93
2018-09-30T09:00:34.375Z,2.63
2018-09-30T09:03:03.328Z,2.27
2018-09-30T09:05:32.274Z,2.27
2018-09-30T09:08:01.179Z,2.50
2018-09-30T09:10:30.146Z,2.90
2018-09-30T09:12:59.290Z,2.20
2018-09-30T09:15:28.278Z,2.87
2018-09-30T09:17:57.203Z,2.93
2018-09-30T09:20:27.230Z,2.50
2018-09-30T09:22:56.064Z,2.67
2018-09-30T09:25:25.162Z,3.00
2018-09-30T09:27:53.982Z,2.90
2018-09-30T09:30:22.946Z,3.00
2018-09-30T09:32:51.827Z,3.30
2018-09-30T09:35:20.819Z,3.07
2018-09-30T09:37:49.718Z,3.10
2018-09-30T09:40:19.938Z,2.60
2018-09-30T09:42:48.807Z,2.80
2018-09-30T09:45:17.771Z,3.20
2018-09-30T09:47:46.657Z,2.33
2018-09-30T09:50:15.549Z,3.43
2018-09-30T09:52:44.417Z,2.97
2018-09-30T09:55:13.330Z,2.83
2018-09-30T09:57:42.160Z,2.80
2018-09-30T10:00:16.292Z,2.73
2018-09-30T10:02:45.201Z,2.57
2018-09-30T10:05:14.218Z,2.53
2018-09-30T10:07:43.021Z,2.97
2018-09-30T10:10:12.938Z,2.57
2018-09-30T10:12:41.770Z,2.67
2018-09-30T10:15:10.808Z,2.77
2018-09-30T10:17:39.661Z,3.30
2018-09-30T10:20:09.661Z,2.33
2018-09-30T10:22:38.513Z,3.23
2018-09-30T10:25:07.490Z,2.63
2018-09-30T10:27:36.594Z,2.80
2018-09-30T10:30:05.770Z,3.13
2018-09-30T10:32:34.602Z,2.83
2018-09-30T10:35:03.638Z,2.50
2018-09-30T10:37:32.483Z,2.20
2018-09-30T10:40:02.545Z,2.67
2018-09-30T10:42:31.668Z,2.00
2018-09-30T10:45:00.695Z,2.57
2018-09-30T10:47:29.547Z,2.60
2018-09-30T10:50:00.681Z,2.37
2018-09-30T10:52:29.523Z,2.60
2018-09-30T10:54:58.618Z,2.33
2018-09-30T10:57:27.514Z,2.20
2018-09-30T10:59:56.901Z,2.63
2018-09-30T11:02:25.823Z,2.10
2018-09-30T11:04:54.882Z,2.40
2018-09-30T11:07:23.769Z,2.50
2018-09-30T11:09:53.061Z,2.60
2018-09-30T11:12:21.872Z,2.23
2018-09-30T11:14:50.931Z,2.30
2018-09-30T11:17:19.813Z,1.90
2018-09-30T11:19:50.409Z,2.43
2018-09-30T11:22:19.362Z,2.00
2018-09-30T11:24:48.390Z,2.07
2018-09-30T11:27:17.704Z,2.07
2018-09-30T11:29:46.855Z,2.37
2018-09-30T11:32:15.728Z,2.57
2018-09-30T11:34:44.842Z,2.90
2018-09-30T11:37:13.748Z,2.77
2018-09-30T11:39:43.772Z,2.23
2018-09-30T11:42:12.623Z,2.50
2018-09-30T11:44:41.602Z,2.20
